Aviation Digital Data Service (ADDS)

Output produced by METARs form (1613 UTC 14 August 2018)
found at http://www.aviationweather.gov/adds/metars/
 
METAR text: DIAP 141600Z 24013KT 9999 FEW012 29/21 Q1013 NOSIG
Conditions at: DIAP (ABIDJAN/PORT BOU, CI) observed 1600 UTC 14 August 2018
Temperature: 29.0°C (84°F)
Dewpoint: 21.0°C (70°F) [RH = 62%]
Pressure (altimeter): 29.91 inches Hg (1013.0 mb)
Winds: from the WSW (240 degrees) at 15 MPH (13 knots; 6.8 m/s)
Visibility: 6 or more miles (10+ km)
Ceiling: at least 12,000 feet AGL
Clouds: few clouds at 1200 feet AGL
Weather: no significant weather observed at this time

METAR text: DIAP 141530Z 24013KT 9999 FEW012 28/22 Q1013 NOSIG
Conditions at: DIAP (ABIDJAN/PORT BOU, CI) observed 1530 UTC 14 August 2018
Temperature: 28.0°C (82°F)
Dewpoint: 22.0°C (72°F) [RH = 70%]
Pressure (altimeter): 29.91 inches Hg (1013.0 mb)
Winds: from the WSW (240 degrees) at 15 MPH (13 knots; 6.8 m/s)
Visibility: 6 or more miles (10+ km)
Ceiling: at least 12,000 feet AGL
Clouds: few clouds at 1200 feet AGL
Weather: no significant weather observed at this time

METAR text: DIAP 141500Z 24013KT 9999 FEW012 29/22 Q1013 NOSIG
Conditions at: DIAP (ABIDJAN/PORT BOU, CI) observed 1500 UTC 14 August 2018
Temperature: 29.0°C (84°F)
Dewpoint: 22.0°C (72°F) [RH = 66%]
Pressure (altimeter): 29.91 inches Hg (1013.0 mb)
Winds: from the WSW (240 degrees) at 15 MPH (13 knots; 6.8 m/s)
Visibility: 6 or more miles (10+ km)
Ceiling: at least 12,000 feet AGL
Clouds: few clouds at 1200 feet AGL
Weather: no significant weather observed at this time

METAR text: DIAP 141430Z 25013KT 9999 FEW012 29/22 Q1013 NOSIG
Conditions at: DIAP (ABIDJAN/PORT BOU, CI) observed 1430 UTC 14 August 2018
Temperature: 29.0°C (84°F)
Dewpoint: 22.0°C (72°F) [RH = 66%]
Pressure (altimeter): 29.91 inches Hg (1013.0 mb)
Winds: from the WSW (250 degrees) at 15 MPH (13 knots; 6.8 m/s)
Visibility: 6 or more miles (10+ km)
Ceiling: at least 12,000 feet AGL
Clouds: few clouds at 1200 feet AGL
Weather: no significant weather observed at this time

METAR text: DIAP 141400Z 25012KT 9999 FEW012 27/22 Q1014 NOSIG
Conditions at: DIAP (ABIDJAN/PORT BOU, CI) observed 1400 UTC 14 August 2018
Temperature: 27.0°C (81°F)
Dewpoint: 22.0°C (72°F) [RH = 74%]
Pressure (altimeter): 29.94 inches Hg (1014.0 mb)
Winds: from the WSW (250 degrees) at 14 MPH (12 knots; 6.2 m/s)
Visibility: 6 or more miles (10+ km)
Ceiling: at least 12,000 feet AGL
Clouds: few clouds at 1200 feet AGL
Weather: no significant weather observed at this time

METAR text: DIAP 141330Z 24011KT 9999 SCT011 SCT035 BKN045 28/22 Q1014 NOSIG
Conditions at: DIAP (ABIDJAN/PORT BOU, CI) observed 1330 UTC 14 August 2018
Temperature: 28.0°C (82°F)
Dewpoint: 22.0°C (72°F) [RH = 70%]
Pressure (altimeter): 29.94 inches Hg (1014.0 mb)
Winds: from the WSW (240 degrees) at 13 MPH (11 knots; 5.7 m/s)
Visibility: 6 or more miles (10+ km)
Ceiling: 4500 feet AGL
Clouds: scattered clouds at 1100 feet AGL
scattered clouds at 3500 feet AGL
broken clouds at 4500 feet AGL
Weather: no significant weather observed at this time

METAR text: DIAP 141300Z 24012KT 200V270 9999 SCT011 SCT030 BKN040 28/22 Q1015 NOSIG
Conditions at: DIAP (ABIDJAN/PORT BOU, CI) observed 1300 UTC 14 August 2018
Temperature: 28.0°C (82°F)
Dewpoint: 22.0°C (72°F) [RH = 70%]
Pressure (altimeter): 29.97 inches Hg (1015.0 mb)
Winds: from the WSW (240 degrees) at 14 MPH (12 knots; 6.2 m/s)
Visibility: 6 or more miles (10+ km)
Ceiling: 4000 feet AGL
Clouds: scattered clouds at 1100 feet AGL
scattered clouds at 3000 feet AGL
broken clouds at 4000 feet AGL
Weather: no significant weather observed at this time

METAR text: DIAP 141230Z 24012KT 9000 SCT011 BKN040 28/22 Q1015 NOSIG
Conditions at: DIAP (ABIDJAN/PORT BOU, CI) observed 1230 UTC 14 August 2018
Temperature: 28.0°C (82°F)
Dewpoint: 22.0°C (72°F) [RH = 70%]
Pressure (altimeter): 29.97 inches Hg (1015.0 mb)
Winds: from the WSW (240 degrees) at 14 MPH (12 knots; 6.2 m/s)
Visibility: 6 miles (9 km)
Ceiling: 4000 feet AGL
Clouds: scattered clouds at 1100 feet AGL
broken clouds at 4000 feet AGL
Weather: no significant weather observed at this time

METAR text: DIAP 141200Z 24012KT 9000 SCT011 BKN040 27/22 Q1015 NOSIG
Conditions at: DIAP (ABIDJAN/PORT BOU, CI) observed 1200 UTC 14 August 2018
Temperature: 27.0°C (81°F)
Dewpoint: 22.0°C (72°F) [RH = 74%]
Pressure (altimeter): 29.97 inches Hg (1015.0 mb)
Winds: from the WSW (240 degrees) at 14 MPH (12 knots; 6.2 m/s)
Visibility: 6 miles (9 km)
Ceiling: 4000 feet AGL
Clouds: scattered clouds at 1100 feet AGL
broken clouds at 4000 feet AGL
Weather: no significant weather observed at this time

METAR text: DIAP 141130Z 24012KT 210V270 9000 SCT011 BKN030 27/22 Q1015 NOSIG
Conditions at: DIAP (ABIDJAN/PORT BOU, CI) observed 1130 UTC 14 August 2018
Temperature: 27.0°C (81°F)
Dewpoint: 22.0°C (72°F) [RH = 74%]
Pressure (altimeter): 29.97 inches Hg (1015.0 mb)
Winds: from the WSW (240 degrees) at 14 MPH (12 knots; 6.2 m/s)
Visibility: 6 miles (9 km)
Ceiling: 3000 feet AGL
Clouds: scattered clouds at 1100 feet AGL
broken clouds at 3000 feet AGL
Weather: no significant weather observed at this time

METAR text: DIAP 141100Z 24012KT 9000 SCT011 27/22 Q1016 NOSIG
Conditions at: DIAP (ABIDJAN/PORT BOU, CI) observed 1100 UTC 14 August 2018
Temperature: 27.0°C (81°F)
Dewpoint: 22.0°C (72°F) [RH = 74%]
Pressure (altimeter): 30.00 inches Hg (1016.0 mb)
Winds: from the WSW (240 degrees) at 14 MPH (12 knots; 6.2 m/s)
Visibility: 6 miles (9 km)
Ceiling: at least 12,000 feet AGL
Clouds: scattered clouds at 1100 feet AGL
Weather: no significant weather observed at this time

METAR text: DIAP 141030Z 25012KT 210V270 9000 SCT011 27/22 Q1016 NOSIG
Conditions at: DIAP (ABIDJAN/PORT BOU, CI) observed 1030 UTC 14 August 2018
Temperature: 27.0°C (81°F)
Dewpoint: 22.0°C (72°F) [RH = 74%]
Pressure (altimeter): 30.00 inches Hg (1016.0 mb)
Winds: from the WSW (250 degrees) at 14 MPH (12 knots; 6.2 m/s)
Visibility: 6 miles (9 km)
Ceiling: at least 12,000 feet AGL
Clouds: scattered clouds at 1100 feet AGL
Weather: no significant weather observed at this time

METAR text: DIAP 141000Z 25012KT 9000 SCT011 27/22 Q1016 NOSIG
Conditions at: DIAP (ABIDJAN/PORT BOU, CI) observed 1000 UTC 14 August 2018
Temperature: 27.0°C (81°F)
Dewpoint: 22.0°C (72°F) [RH = 74%]
Pressure (altimeter): 30.00 inches Hg (1016.0 mb)
Winds: from the WSW (250 degrees) at 14 MPH (12 knots; 6.2 m/s)
Visibility: 6 miles (9 km)
Ceiling: at least 12,000 feet AGL
Clouds: scattered clouds at 1100 feet AGL
Weather: no significant weather observed at this time

METAR text: DIAP 140930Z 25012KT 9000 SCT011 27/22 Q1015 NOSIG
Conditions at: DIAP (ABIDJAN/PORT BOU, CI) observed 0930 UTC 14 August 2018
Temperature: 27.0°C (81°F)
Dewpoint: 22.0°C (72°F) [RH = 74%]
Pressure (altimeter): 29.97 inches Hg (1015.0 mb)
Winds: from the WSW (250 degrees) at 14 MPH (12 knots; 6.2 m/s)
Visibility: 6 miles (9 km)
Ceiling: at least 12,000 feet AGL
Clouds: scattered clouds at 1100 feet AGL
Weather: no significant weather observed at this time

METAR text: DIAP 140900Z 24011KT 9000 SCT011 27/22 Q1015 NOSIG
Conditions at: DIAP (ABIDJAN/PORT BOU, CI) observed 0900 UTC 14 August 2018
Temperature: 27.0°C (81°F)
Dewpoint: 22.0°C (72°F) [RH = 74%]
Pressure (altimeter): 29.97 inches Hg (1015.0 mb)
Winds: from the WSW (240 degrees) at 13 MPH (11 knots; 5.7 m/s)
Visibility: 6 miles (9 km)
Ceiling: at least 12,000 feet AGL
Clouds: scattered clouds at 1100 feet AGL
Weather: no significant weather observed at this time

METAR text: DIAP 140830Z 25008KT 9000 FEW011 BKN040 26/22 Q1015 NOSIG
Conditions at: DIAP (ABIDJAN/PORT BOU, CI) observed 0830 UTC 14 August 2018
Temperature: 26.0°C (79°F)
Dewpoint: 22.0°C (72°F) [RH = 79%]
Pressure (altimeter): 29.97 inches Hg (1015.0 mb)
Winds: from the WSW (250 degrees) at 9 MPH (8 knots; 4.2 m/s)
Visibility: 6 miles (9 km)
Ceiling: 4000 feet AGL
Clouds: few clouds at 1100 feet AGL
broken clouds at 4000 feet AGL
Weather: no significant weather observed at this time

METAR text: DIAP 140800Z 25006KT 9000 FEW011 BKN040 25/22 Q1015 NOSIG
Conditions at: DIAP (ABIDJAN/PORT BOU, CI) observed 0800 UTC 14 August 2018
Temperature: 25.0°C (77°F)
Dewpoint: 22.0°C (72°F) [RH = 83%]
Pressure (altimeter): 29.97 inches Hg (1015.0 mb)
Winds: from the WSW (250 degrees) at 7 MPH (6 knots; 3.1 m/s)
Visibility: 6 miles (9 km)
Ceiling: 4000 feet AGL
Clouds: few clouds at 1100 feet AGL
broken clouds at 4000 feet AGL
Weather: no significant weather observed at this time

METAR text: DIAP 140730Z 25007KT 9000 FEW011 BKN040 25/22 Q1014 NOSIG
Conditions at: DIAP (ABIDJAN/PORT BOU, CI) observed 0730 UTC 14 August 2018
Temperature: 25.0°C (77°F)
Dewpoint: 22.0°C (72°F) [RH = 83%]
Pressure (altimeter): 29.94 inches Hg (1014.0 mb)
Winds: from the WSW (250 degrees) at 8 MPH (7 knots; 3.6 m/s)
Visibility: 6 miles (9 km)
Ceiling: 4000 feet AGL
Clouds: few clouds at 1100 feet AGL
broken clouds at 4000 feet AGL
Weather: no significant weather observed at this time

METAR text: DIAP 140700Z 25007KT 9000 FEW011 BKN040 25/22 Q1014 NOSIG
Conditions at: DIAP (ABIDJAN/PORT BOU, CI) observed 0700 UTC 14 August 2018
Temperature: 25.0°C (77°F)
Dewpoint: 22.0°C (72°F) [RH = 83%]
Pressure (altimeter): 29.94 inches Hg (1014.0 mb)
Winds: from the WSW (250 degrees) at 8 MPH (7 knots; 3.6 m/s)
Visibility: 6 miles (9 km)
Ceiling: 4000 feet AGL
Clouds: few clouds at 1100 feet AGL
broken clouds at 4000 feet AGL
Weather: no significant weather observed at this time

METAR text: DIAP 140630Z 26006KT 9000 FEW011 BKN040 25/22 Q1013 NOSIG
Conditions at: DIAP (ABIDJAN/PORT BOU, CI) observed 0630 UTC 14 August 2018
Temperature: 25.0°C (77°F)
Dewpoint: 22.0°C (72°F) [RH = 83%]
Pressure (altimeter): 29.91 inches Hg (1013.0 mb)
Winds: from the W (260 degrees) at 7 MPH (6 knots; 3.1 m/s)
Visibility: 6 miles (9 km)
Ceiling: 4000 feet AGL
Clouds: few clouds at 1100 feet AGL
broken clouds at 4000 feet AGL
Weather: no significant weather observed at this time

METAR text: DIAP 140600Z 26008KT 9000 FEW011 BKN040 24/22 Q1013 NOSIG
Conditions at: DIAP (ABIDJAN/PORT BOU, CI) observed 0600 UTC 14 August 2018
Temperature: 24.0°C (75°F)
Dewpoint: 22.0°C (72°F) [RH = 89%]
Pressure (altimeter): 29.91 inches Hg (1013.0 mb)
Winds: from the W (260 degrees) at 9 MPH (8 knots; 4.2 m/s)
Visibility: 6 miles (9 km)
Ceiling: 4000 feet AGL
Clouds: few clouds at 1100 feet AGL
broken clouds at 4000 feet AGL
Weather: no significant weather observed at this time

METAR text: DIAP 140530Z 24006KT 9999 FEW012 BKN040 24/22 Q1013 NOSIG
Conditions at: DIAP (ABIDJAN/PORT BOU, CI) observed 0530 UTC 14 August 2018
Temperature: 24.0°C (75°F)
Dewpoint: 22.0°C (72°F) [RH = 89%]
Pressure (altimeter): 29.91 inches Hg (1013.0 mb)
Winds: from the WSW (240 degrees) at 7 MPH (6 knots; 3.1 m/s)
Visibility: 6 or more miles (10+ km)
Ceiling: 4000 feet AGL
Clouds: few clouds at 1200 feet AGL
broken clouds at 4000 feet AGL
Weather: no significant weather observed at this time

METAR text: DIAP 140500Z 24005KT 9999 FEW012 BKN040 24/22 Q1013 NOSIG
Conditions at: DIAP (ABIDJAN/PORT BOU, CI) observed 0500 UTC 14 August 2018
Temperature: 24.0°C (75°F)
Dewpoint: 22.0°C (72°F) [RH = 89%]
Pressure (altimeter): 29.91 inches Hg (1013.0 mb)
Winds: from the WSW (240 degrees) at 6 MPH (5 knots; 2.6 m/s)
Visibility: 6 or more miles (10+ km)
Ceiling: 4000 feet AGL
Clouds: few clouds at 1200 feet AGL
broken clouds at 4000 feet AGL
Weather: no significant weather observed at this time

METAR text: DIAP 140430Z 24006KT 9999 FEW012 BKN040 25/22 Q1013 NOSIG
Conditions at: DIAP (ABIDJAN/PORT BOU, CI) observed 0430 UTC 14 August 2018
Temperature: 25.0°C (77°F)
Dewpoint: 22.0°C (72°F) [RH = 83%]
Pressure (altimeter): 29.91 inches Hg (1013.0 mb)
Winds: from the WSW (240 degrees) at 7 MPH (6 knots; 3.1 m/s)
Visibility: 6 or more miles (10+ km)
Ceiling: 4000 feet AGL
Clouds: few clouds at 1200 feet AGL
broken clouds at 4000 feet AGL
Weather: no significant weather observed at this time

METAR text: DIAP 140400Z 25003KT 9999 FEW012 BKN040 25/22 Q1012 NOSIG
Conditions at: DIAP (ABIDJAN/PORT BOU, CI) observed 0400 UTC 14 August 2018
Temperature: 25.0°C (77°F)
Dewpoint: 22.0°C (72°F) [RH = 83%]
Pressure (altimeter): 29.88 inches Hg (1012.0 mb)
Winds: from the WSW (250 degrees) at 3 MPH (3 knots; 1.6 m/s)
Visibility: 6 or more miles (10+ km)
Ceiling: 4000 feet AGL
Clouds: few clouds at 1200 feet AGL
broken clouds at 4000 feet AGL
Weather: no significant weather observed at this time

METAR text: DIAP 140330Z 25007KT 9999 FEW012 BKN040 25/22 Q1012 NOSIG
Conditions at: DIAP (ABIDJAN/PORT BOU, CI) observed 0330 UTC 14 August 2018
Temperature: 25.0°C (77°F)
Dewpoint: 22.0°C (72°F) [RH = 83%]
Pressure (altimeter): 29.88 inches Hg (1012.0 mb)
Winds: from the WSW (250 degrees) at 8 MPH (7 knots; 3.6 m/s)
Visibility: 6 or more miles (10+ km)
Ceiling: 4000 feet AGL
Clouds: few clouds at 1200 feet AGL
broken clouds at 4000 feet AGL
Weather: no significant weather observed at this time

METAR text: DIAP 140300Z 26006KT 9999 FEW012 25/22 Q1012 NOSIG
Conditions at: DIAP (ABIDJAN/PORT BOU, CI) observed 0300 UTC 14 August 2018
Temperature: 25.0°C (77°F)
Dewpoint: 22.0°C (72°F) [RH = 83%]
Pressure (altimeter): 29.88 inches Hg (1012.0 mb)
Winds: from the W (260 degrees) at 7 MPH (6 knots; 3.1 m/s)
Visibility: 6 or more miles (10+ km)
Ceiling: at least 12,000 feet AGL
Clouds: few clouds at 1200 feet AGL
Weather: no significant weather observed at this time

METAR text: DIAP 140200Z 26007KT 9999 FEW012 25/23 Q1013 NOSIG
Conditions at: DIAP (ABIDJAN/PORT BOU, CI) observed 0200 UTC 14 August 2018
Temperature: 25.0°C (77°F)
Dewpoint: 23.0°C (73°F) [RH = 89%]
Pressure (altimeter): 29.91 inches Hg (1013.0 mb)
Winds: from the W (260 degrees) at 8 MPH (7 knots; 3.6 m/s)
Visibility: 6 or more miles (10+ km)
Ceiling: at least 12,000 feet AGL
Clouds: few clouds at 1200 feet AGL
Weather: no significant weather observed at this time

METAR text: DIAP 140130Z 25006KT 9999 FEW012 25/23 Q1013 NOSIG
Conditions at: DIAP (ABIDJAN/PORT BOU, CI) observed 0130 UTC 14 August 2018
Temperature: 25.0°C (77°F)
Dewpoint: 23.0°C (73°F) [RH = 89%]
Pressure (altimeter): 29.91 inches Hg (1013.0 mb)
Winds: from the WSW (250 degrees) at 7 MPH (6 knots; 3.1 m/s)
Visibility: 6 or more miles (10+ km)
Ceiling: at least 12,000 feet AGL
Clouds: few clouds at 1200 feet AGL
Weather: no significant weather observed at this time

METAR text: DIAP 140100Z 25005KT 9999 FEW012 25/23 Q1014 NOSIG
Conditions at: DIAP (ABIDJAN/PORT BOU, CI) observed 0100 UTC 14 August 2018
Temperature: 25.0°C (77°F)
Dewpoint: 23.0°C (73°F) [RH = 89%]
Pressure (altimeter): 29.94 inches Hg (1014.0 mb)
Winds: from the WSW (250 degrees) at 6 MPH (5 knots; 2.6 m/s)
Visibility: 6 or more miles (10+ km)
Ceiling: at least 12,000 feet AGL
Clouds: few clouds at 1200 feet AGL
Weather: no significant weather observed at this time

METAR text: DIAP 140030Z 24004KT 9999 FEW012 25/23 Q1014 NOSIG
Conditions at: DIAP (ABIDJAN/PORT BOU, CI) observed 0030 UTC 14 August 2018
Temperature: 25.0°C (77°F)
Dewpoint: 23.0°C (73°F) [RH = 89%]
Pressure (altimeter): 29.94 inches Hg (1014.0 mb)
Winds: from the WSW (240 degrees) at 5 MPH (4 knots; 2.1 m/s)
Visibility: 6 or more miles (10+ km)
Ceiling: at least 12,000 feet AGL
Clouds: few clouds at 1200 feet AGL
Weather: no significant weather observed at this time

METAR text: DIAP 140000Z 25004KT 9999 FEW012 25/23 Q1014 NOSIG
Conditions at: DIAP (ABIDJAN/PORT BOU, CI) observed 0000 UTC 14 August 2018
Temperature: 25.0°C (77°F)
Dewpoint: 23.0°C (73°F) [RH = 89%]
Pressure (altimeter): 29.94 inches Hg (1014.0 mb)
Winds: from the WSW (250 degrees) at 5 MPH (4 knots; 2.1 m/s)
Visibility: 6 or more miles (10+ km)
Ceiling: at least 12,000 feet AGL
Clouds: few clouds at 1200 feet AGL
Weather: no significant weather observed at this time

METAR text: DIAP 132330Z 24003KT 200V270 9999 FEW012 25/23 Q1014 NOSIG
Conditions at: DIAP (ABIDJAN/PORT BOU, CI) observed 2330 UTC 13 August 2018
Temperature: 25.0°C (77°F)
Dewpoint: 23.0°C (73°F) [RH = 89%]
Pressure (altimeter): 29.94 inches Hg (1014.0 mb)
Winds: from the WSW (240 degrees) at 3 MPH (3 knots; 1.6 m/s)
Visibility: 6 or more miles (10+ km)
Ceiling: at least 12,000 feet AGL
Clouds: few clouds at 1200 feet AGL
Weather: no significant weather observed at this time

METAR text: DIAP 132300Z 26003KT 9999 FEW012 25/23 Q1015 NOSIG
Conditions at: DIAP (ABIDJAN/PORT BOU, CI) observed 2300 UTC 13 August 2018
Temperature: 25.0°C (77°F)
Dewpoint: 23.0°C (73°F) [RH = 89%]
Pressure (altimeter): 29.97 inches Hg (1015.0 mb)
Winds: from the W (260 degrees) at 3 MPH (3 knots; 1.6 m/s)
Visibility: 6 or more miles (10+ km)
Ceiling: at least 12,000 feet AGL
Clouds: few clouds at 1200 feet AGL
Weather: no significant weather observed at this time

METAR text: DIAP 132230Z 27002KT 9999 FEW012 25/23 Q1015 NOSIG
Conditions at: DIAP (ABIDJAN/PORT BOU, CI) observed 2230 UTC 13 August 2018
Temperature: 25.0°C (77°F)
Dewpoint: 23.0°C (73°F) [RH = 89%]
Pressure (altimeter): 29.97 inches Hg (1015.0 mb)
Winds: from the W (270 degrees) at 2 MPH (2 knots; 1.0 m/s)
Visibility: 6 or more miles (10+ km)
Ceiling: at least 12,000 feet AGL
Clouds: few clouds at 1200 feet AGL
Weather: no significant weather observed at this time

METAR text: DIAP 132200Z 20002KT 9999 FEW012 25/23 Q1015 NOSIG
Conditions at: DIAP (ABIDJAN/PORT BOU, CI) observed 2200 UTC 13 August 2018
Temperature: 25.0°C (77°F)
Dewpoint: 23.0°C (73°F) [RH = 89%]
Pressure (altimeter): 29.97 inches Hg (1015.0 mb)
Winds: from the SSW (200 degrees) at 2 MPH (2 knots; 1.0 m/s)
Visibility: 6 or more miles (10+ km)
Ceiling: at least 12,000 feet AGL
Clouds: few clouds at 1200 feet AGL
Weather: no significant weather observed at this time

METAR text: DIAP 132130Z 19001KT 9999 FEW012 25/23 Q1014 NOSIG
Conditions at: DIAP (ABIDJAN/PORT BOU, CI) observed 2130 UTC 13 August 2018
Temperature: 25.0°C (77°F)
Dewpoint: 23.0°C (73°F) [RH = 89%]
Pressure (altimeter): 29.94 inches Hg (1014.0 mb)
Winds: from the S (190 degrees) at 1 MPH (1 knots; 0.5 m/s)
Visibility: 6 or more miles (10+ km)
Ceiling: at least 12,000 feet AGL
Clouds: few clouds at 1200 feet AGL
Weather: no significant weather observed at this time

METAR text: DIAP 132100Z 20003KT 9999 SCT012 25/23 Q1014 NOSIG
Conditions at: DIAP (ABIDJAN/PORT BOU, CI) observed 2100 UTC 13 August 2018
Temperature: 25.0°C (77°F)
Dewpoint: 23.0°C (73°F) [RH = 89%]
Pressure (altimeter): 29.94 inches Hg (1014.0 mb)
Winds: from the SSW (200 degrees) at 3 MPH (3 knots; 1.6 m/s)
Visibility: 6 or more miles (10+ km)
Ceiling: at least 12,000 feet AGL
Clouds: scattered clouds at 1200 feet AGL
Weather: no significant weather observed at this time

METAR text: DIAP 132030Z 20003KT 9999 SCT012 25/23 Q1014 NOSIG
Conditions at: DIAP (ABIDJAN/PORT BOU, CI) observed 2030 UTC 13 August 2018
Temperature: 25.0°C (77°F)
Dewpoint: 23.0°C (73°F) [RH = 89%]
Pressure (altimeter): 29.94 inches Hg (1014.0 mb)
Winds: from the SSW (200 degrees) at 3 MPH (3 knots; 1.6 m/s)
Visibility: 6 or more miles (10+ km)
Ceiling: at least 12,000 feet AGL
Clouds: scattered clouds at 1200 feet AGL
Weather: no significant weather observed at this time

METAR text: DIAP 132000Z 19003KT 9999 SCT012 25/23 Q1014 NOSIG
Conditions at: DIAP (ABIDJAN/PORT BOU, CI) observed 2000 UTC 13 August 2018
Temperature: 25.0°C (77°F)
Dewpoint: 23.0°C (73°F) [RH = 89%]
Pressure (altimeter): 29.94 inches Hg (1014.0 mb)
Winds: from the S (190 degrees) at 3 MPH (3 knots; 1.6 m/s)
Visibility: 6 or more miles (10+ km)
Ceiling: at least 12,000 feet AGL
Clouds: scattered clouds at 1200 feet AGL
Weather: no significant weather observed at this time

METAR text: DIAP 131930Z 20005KT 9999 FEW012 25/23 Q1013 NOSIG
Conditions at: DIAP (ABIDJAN/PORT BOU, CI) observed 1930 UTC 13 August 2018
Temperature: 25.0°C (77°F)
Dewpoint: 23.0°C (73°F) [RH = 89%]
Pressure (altimeter): 29.91 inches Hg (1013.0 mb)
Winds: from the SSW (200 degrees) at 6 MPH (5 knots; 2.6 m/s)
Visibility: 6 or more miles (10+ km)
Ceiling: at least 12,000 feet AGL
Clouds: few clouds at 1200 feet AGL
Weather: no significant weather observed at this time

METAR text: DIAP 131900Z 21006KT 9999 FEW012 25/23 Q1013 NOSIG
Conditions at: DIAP (ABIDJAN/PORT BOU, CI) observed 1900 UTC 13 August 2018
Temperature: 25.0°C (77°F)
Dewpoint: 23.0°C (73°F) [RH = 89%]
Pressure (altimeter): 29.91 inches Hg (1013.0 mb)
Winds: from the SSW (210 degrees) at 7 MPH (6 knots; 3.1 m/s)
Visibility: 6 or more miles (10+ km)
Ceiling: at least 12,000 feet AGL
Clouds: few clouds at 1200 feet AGL
Weather: no significant weather observed at this time

METAR text: DIAP 131830Z 21006KT 9999 FEW012 26/23 Q1013 NOSIG
Conditions at: DIAP (ABIDJAN/PORT BOU, CI) observed 1830 UTC 13 August 2018
Temperature: 26.0°C (79°F)
Dewpoint: 23.0°C (73°F) [RH = 84%]
Pressure (altimeter): 29.91 inches Hg (1013.0 mb)
Winds: from the SSW (210 degrees) at 7 MPH (6 knots; 3.1 m/s)
Visibility: 6 or more miles (10+ km)
Ceiling: at least 12,000 feet AGL
Clouds: few clouds at 1200 feet AGL
Weather: no significant weather observed at this time

METAR text: DIAP 131800Z 20007KT 9999 FEW012 26/23 Q1013 NOSIG
Conditions at: DIAP (ABIDJAN/PORT BOU, CI) observed 1800 UTC 13 August 2018
Temperature: 26.0°C (79°F)
Dewpoint: 23.0°C (73°F) [RH = 84%]
Pressure (altimeter): 29.91 inches Hg (1013.0 mb)
Winds: from the SSW (200 degrees) at 8 MPH (7 knots; 3.6 m/s)
Visibility: 6 or more miles (10+ km)
Ceiling: at least 12,000 feet AGL
Clouds: few clouds at 1200 feet AGL
Weather: no significant weather observed at this time

METAR text: DIAP 131730Z 21007KT 9999 FEW012 26/23 Q1013 NOSIG
Conditions at: DIAP (ABIDJAN/PORT BOU, CI) observed 1730 UTC 13 August 2018
Temperature: 26.0°C (79°F)
Dewpoint: 23.0°C (73°F) [RH = 84%]
Pressure (altimeter): 29.91 inches Hg (1013.0 mb)
Winds: from the SSW (210 degrees) at 8 MPH (7 knots; 3.6 m/s)
Visibility: 6 or more miles (10+ km)
Ceiling: at least 12,000 feet AGL
Clouds: few clouds at 1200 feet AGL
Weather: no significant weather observed at this time

METAR text: DIAP 131700Z 22009KT 9999 FEW012 27/22 Q1013 NOSIG
Conditions at: DIAP (ABIDJAN/PORT BOU, CI) observed 1700 UTC 13 August 2018
Temperature: 27.0°C (81°F)
Dewpoint: 22.0°C (72°F) [RH = 74%]
Pressure (altimeter): 29.91 inches Hg (1013.0 mb)
Winds: from the SW (220 degrees) at 10 MPH (9 knots; 4.7 m/s)
Visibility: 6 or more miles (10+ km)
Ceiling: at least 12,000 feet AGL
Clouds: few clouds at 1200 feet AGL
Weather: no significant weather observed at this time

METAR text: DIAP 131630Z 23009KT 9999 FEW012 27/22 Q1013 NOSIG
Conditions at: DIAP (ABIDJAN/PORT BOU, CI) observed 1630 UTC 13 August 2018
Temperature: 27.0°C (81°F)
Dewpoint: 22.0°C (72°F) [RH = 74%]
Pressure (altimeter): 29.91 inches Hg (1013.0 mb)
Winds: from the SW (230 degrees) at 10 MPH (9 knots; 4.7 m/s)
Visibility: 6 or more miles (10+ km)
Ceiling: at least 12,000 feet AGL
Clouds: few clouds at 1200 feet AGL
Weather: no significant weather observed at this time

METAR text: DIAP 131600Z 23009KT 9999 SCT011 27/22 Q1013 NOSIG
Conditions at: DIAP (ABIDJAN/PORT BOU, CI) observed 1600 UTC 13 August 2018
Temperature: 27.0°C (81°F)
Dewpoint: 22.0°C (72°F) [RH = 74%]
Pressure (altimeter): 29.91 inches Hg (1013.0 mb)
Winds: from the SW (230 degrees) at 10 MPH (9 knots; 4.7 m/s)
Visibility: 6 or more miles (10+ km)
Ceiling: at least 12,000 feet AGL
Clouds: scattered clouds at 1100 feet AGL
Weather: no significant weather observed at this time

METAR text: DIAP 131530Z 22009KT 9999 SCT011 27/22 Q1013 NOSIG
Conditions at: DIAP (ABIDJAN/PORT BOU, CI) observed 1530 UTC 13 August 2018
Temperature: 27.0°C (81°F)
Dewpoint: 22.0°C (72°F) [RH = 74%]
Pressure (altimeter): 29.91 inches Hg (1013.0 mb)
Winds: from the SW (220 degrees) at 10 MPH (9 knots; 4.7 m/s)
Visibility: 6 or more miles (10+ km)
Ceiling: at least 12,000 feet AGL
Clouds: scattered clouds at 1100 feet AGL
Weather: no significant weather observed at this time

METAR text: DIAP 131500Z 23010KT 9999 SCT011 27/22 Q1013 NOSIG
Conditions at: DIAP (ABIDJAN/PORT BOU, CI) observed 1500 UTC 13 August 2018
Temperature: 27.0°C (81°F)
Dewpoint: 22.0°C (72°F) [RH = 74%]
Pressure (altimeter): 29.91 inches Hg (1013.0 mb)
Winds: from the SW (230 degrees) at 12 MPH (10 knots; 5.2 m/s)
Visibility: 6 or more miles (10+ km)
Ceiling: at least 12,000 feet AGL
Clouds: scattered clouds at 1100 feet AGL
Weather: no significant weather observed at this time

METAR text: DIAP 131430Z 22010KT 9999 SCT012 BKN030 28/22 Q1013 NOSIG
Conditions at: DIAP (ABIDJAN/PORT BOU, CI) observed 1430 UTC 13 August 2018
Temperature: 28.0°C (82°F)
Dewpoint: 22.0°C (72°F) [RH = 70%]
Pressure (altimeter): 29.91 inches Hg (1013.0 mb)
Winds: from the SW (220 degrees) at 12 MPH (10 knots; 5.2 m/s)
Visibility: 6 or more miles (10+ km)
Ceiling: 3000 feet AGL
Clouds: scattered clouds at 1200 feet AGL
broken clouds at 3000 feet AGL
Weather: no significant weather observed at this time

METAR text: DIAP 131400Z 22011KT 9999 SCT012 BKN030 27/21 Q1014 NOSIG
Conditions at: DIAP (ABIDJAN/PORT BOU, CI) observed 1400 UTC 13 August 2018
Temperature: 27.0°C (81°F)
Dewpoint: 21.0°C (70°F) [RH = 70%]
Pressure (altimeter): 29.94 inches Hg (1014.0 mb)
Winds: from the SW (220 degrees) at 13 MPH (11 knots; 5.7 m/s)
Visibility: 6 or more miles (10+ km)
Ceiling: 3000 feet AGL
Clouds: scattered clouds at 1200 feet AGL
broken clouds at 3000 feet AGL
Weather: no significant weather observed at this time

METAR text: DIAP 131330Z 22010KT 9999 SCT012 BKN030 27/22 Q1014 NOSIG
Conditions at: DIAP (ABIDJAN/PORT BOU, CI) observed 1330 UTC 13 August 2018
Temperature: 27.0°C (81°F)
Dewpoint: 22.0°C (72°F) [RH = 74%]
Pressure (altimeter): 29.94 inches Hg (1014.0 mb)
Winds: from the SW (220 degrees) at 12 MPH (10 knots; 5.2 m/s)
Visibility: 6 or more miles (10+ km)
Ceiling: 3000 feet AGL
Clouds: scattered clouds at 1200 feet AGL
broken clouds at 3000 feet AGL
Weather: no significant weather observed at this time

METAR text: DIAP 131300Z 23011KT 9999 SCT012 28/21 Q1015 NOSIG
Conditions at: DIAP (ABIDJAN/PORT BOU, CI) observed 1300 UTC 13 August 2018
Temperature: 28.0°C (82°F)
Dewpoint: 21.0°C (70°F) [RH = 66%]
Pressure (altimeter): 29.97 inches Hg (1015.0 mb)
Winds: from the SW (230 degrees) at 13 MPH (11 knots; 5.7 m/s)
Visibility: 6 or more miles (10+ km)
Ceiling: at least 12,000 feet AGL
Clouds: scattered clouds at 1200 feet AGL
Weather: no significant weather observed at this time

METAR text: DIAP 131230Z 22013KT 9999 SCT012 28/21 Q1015 NOSIG
Conditions at: DIAP (ABIDJAN/PORT BOU, CI) observed 1230 UTC 13 August 2018
Temperature: 28.0°C (82°F)
Dewpoint: 21.0°C (70°F) [RH = 66%]
Pressure (altimeter): 29.97 inches Hg (1015.0 mb)
Winds: from the SW (220 degrees) at 15 MPH (13 knots; 6.8 m/s)
Visibility: 6 or more miles (10+ km)
Ceiling: at least 12,000 feet AGL
Clouds: scattered clouds at 1200 feet AGL
Weather: no significant weather observed at this time

METAR text: DIAP 131200Z 22012KT 9999 FEW012 28/21 Q1016 NOSIG
Conditions at: DIAP (ABIDJAN/PORT BOU, CI) observed 1200 UTC 13 August 2018
Temperature: 28.0°C (82°F)
Dewpoint: 21.0°C (70°F) [RH = 66%]
Pressure (altimeter): 30.00 inches Hg (1016.0 mb)
Winds: from the SW (220 degrees) at 14 MPH (12 knots; 6.2 m/s)
Visibility: 6 or more miles (10+ km)
Ceiling: at least 12,000 feet AGL
Clouds: few clouds at 1200 feet AGL
Weather: no significant weather observed at this time

METAR text: DIAP 131130Z 22013KT 9999 FEW012 28/21 Q1016 NOSIG
Conditions at: DIAP (ABIDJAN/PORT BOU, CI) observed 1130 UTC 13 August 2018
Temperature: 28.0°C (82°F)
Dewpoint: 21.0°C (70°F) [RH = 66%]
Pressure (altimeter): 30.00 inches Hg (1016.0 mb)
Winds: from the SW (220 degrees) at 15 MPH (13 knots; 6.8 m/s)
Visibility: 6 or more miles (10+ km)
Ceiling: at least 12,000 feet AGL
Clouds: few clouds at 1200 feet AGL
Weather: no significant weather observed at this time

METAR text: DIAP 131100Z 24012KT 9999 FEW012 29/21 Q1016 NOSIG
Conditions at: DIAP (ABIDJAN/PORT BOU, CI) observed 1100 UTC 13 August 2018
Temperature: 29.0°C (84°F)
Dewpoint: 21.0°C (70°F) [RH = 62%]
Pressure (altimeter): 30.00 inches Hg (1016.0 mb)
Winds: from the WSW (240 degrees) at 14 MPH (12 knots; 6.2 m/s)
Visibility: 6 or more miles (10+ km)
Ceiling: at least 12,000 feet AGL
Clouds: few clouds at 1200 feet AGL
Weather: no significant weather observed at this time

METAR text: DIAP 131030Z 25011KT 8000 FEW012 28/21 Q1016 NOSIG
Conditions at: DIAP (ABIDJAN/PORT BOU, CI) observed 1030 UTC 13 August 2018
Temperature: 28.0°C (82°F)
Dewpoint: 21.0°C (70°F) [RH = 66%]
Pressure (altimeter): 30.00 inches Hg (1016.0 mb)
Winds: from the WSW (250 degrees) at 13 MPH (11 knots; 5.7 m/s)
Visibility: 5 miles (8 km)
Ceiling: at least 12,000 feet AGL
Clouds: few clouds at 1200 feet AGL
Weather: no significant weather observed at this time

METAR text: DIAP 131000Z 25011KT 220V280 8000 SCT012 28/22 Q1016 NOSIG
Conditions at: DIAP (ABIDJAN/PORT BOU, CI) observed 1000 UTC 13 August 2018
Temperature: 28.0°C (82°F)
Dewpoint: 22.0°C (72°F) [RH = 70%]
Pressure (altimeter): 30.00 inches Hg (1016.0 mb)
Winds: from the WSW (250 degrees) at 13 MPH (11 knots; 5.7 m/s)
Visibility: 5 miles (8 km)
Ceiling: at least 12,000 feet AGL
Clouds: scattered clouds at 1200 feet AGL
Weather: no significant weather observed at this time

METAR text: DIAP 130930Z 25011KT 8000 SCT012 27/21 Q1016 NOSIG
Conditions at: DIAP (ABIDJAN/PORT BOU, CI) observed 0930 UTC 13 August 2018
Temperature: 27.0°C (81°F)
Dewpoint: 21.0°C (70°F) [RH = 70%]
Pressure (altimeter): 30.00 inches Hg (1016.0 mb)
Winds: from the WSW (250 degrees) at 13 MPH (11 knots; 5.7 m/s)
Visibility: 5 miles (8 km)
Ceiling: at least 12,000 feet AGL
Clouds: scattered clouds at 1200 feet AGL
Weather: no significant weather observed at this time

METAR text: DIAP 130900Z 26006KT 230V300 8000 SCT011 27/22 Q1016 NOSIG
Conditions at: DIAP (ABIDJAN/PORT BOU, CI) observed 0900 UTC 13 August 2018
Temperature: 27.0°C (81°F)
Dewpoint: 22.0°C (72°F) [RH = 74%]
Pressure (altimeter): 30.00 inches Hg (1016.0 mb)
Winds: from the W (260 degrees) at 7 MPH (6 knots; 3.1 m/s)
Visibility: 5 miles (8 km)
Ceiling: at least 12,000 feet AGL
Clouds: scattered clouds at 1100 feet AGL
Weather: no significant weather observed at this time

METAR text: DIAP 130830Z 27008KT 240V300 8000 SCT011 27/22 Q1016 NOSIG
Conditions at: DIAP (ABIDJAN/PORT BOU, CI) observed 0830 UTC 13 August 2018
Temperature: 27.0°C (81°F)
Dewpoint: 22.0°C (72°F) [RH = 74%]
Pressure (altimeter): 30.00 inches Hg (1016.0 mb)
Winds: from the W (270 degrees) at 9 MPH (8 knots; 4.2 m/s)
Visibility: 5 miles (8 km)
Ceiling: at least 12,000 feet AGL
Clouds: scattered clouds at 1100 feet AGL
Weather: no significant weather observed at this time

METAR text: DIAP 130800Z 28007KT 8000 SCT011 26/23 Q1016 NOSIG
Conditions at: DIAP (ABIDJAN/PORT BOU, CI) observed 0800 UTC 13 August 2018
Temperature: 26.0°C (79°F)
Dewpoint: 23.0°C (73°F) [RH = 84%]
Pressure (altimeter): 30.00 inches Hg (1016.0 mb)
Winds: from the W (280 degrees) at 8 MPH (7 knots; 3.6 m/s)
Visibility: 5 miles (8 km)
Ceiling: at least 12,000 feet AGL
Clouds: scattered clouds at 1100 feet AGL
Weather: no significant weather observed at this time

METAR text: DIAP 130730Z 26007KT 8000 SCT011 25/23 Q1015 NOSIG
Conditions at: DIAP (ABIDJAN/PORT BOU, CI) observed 0730 UTC 13 August 2018
Temperature: 25.0°C (77°F)
Dewpoint: 23.0°C (73°F) [RH = 89%]
Pressure (altimeter): 29.97 inches Hg (1015.0 mb)
Winds: from the W (260 degrees) at 8 MPH (7 knots; 3.6 m/s)
Visibility: 5 miles (8 km)
Ceiling: at least 12,000 feet AGL
Clouds: scattered clouds at 1100 feet AGL
Weather: no significant weather observed at this time

METAR text: DIAP 130700Z 25006KT 8000 SCT011 25/23 Q1015 NOSIG
Conditions at: DIAP (ABIDJAN/PORT BOU, CI) observed 0700 UTC 13 August 2018
Temperature: 25.0°C (77°F)
Dewpoint: 23.0°C (73°F) [RH = 89%]
Pressure (altimeter): 29.97 inches Hg (1015.0 mb)
Winds: from the WSW (250 degrees) at 7 MPH (6 knots; 3.1 m/s)
Visibility: 5 miles (8 km)
Ceiling: at least 12,000 feet AGL
Clouds: scattered clouds at 1100 feet AGL
Weather: no significant weather observed at this time

METAR text: DIAP 130630Z 25006KT 8000 SCT011 24/23 Q1015 NOSIG
Conditions at: DIAP (ABIDJAN/PORT BOU, CI) observed 0630 UTC 13 August 2018
Temperature: 24.0°C (75°F)
Dewpoint: 23.0°C (73°F) [RH = 94%]
Pressure (altimeter): 29.97 inches Hg (1015.0 mb)
Winds: from the WSW (250 degrees) at 7 MPH (6 knots; 3.1 m/s)
Visibility: 5 miles (8 km)
Ceiling: at least 12,000 feet AGL
Clouds: scattered clouds at 1100 feet AGL
Weather: no significant weather observed at this time

METAR text: DIAP 130600Z 25005KT 8000 SCT011 24/23 Q1014 NOSIG
Conditions at: DIAP (ABIDJAN/PORT BOU, CI) observed 0600 UTC 13 August 2018
Temperature: 24.0°C (75°F)
Dewpoint: 23.0°C (73°F) [RH = 94%]
Pressure (altimeter): 29.94 inches Hg (1014.0 mb)
Winds: from the WSW (250 degrees) at 6 MPH (5 knots; 2.6 m/s)
Visibility: 5 miles (8 km)
Ceiling: at least 12,000 feet AGL
Clouds: scattered clouds at 1100 feet AGL
Weather: no significant weather observed at this time

METAR text: DIAP 130530Z 25004KT 8000 SCT011 24/23 Q1014 NOSIG
Conditions at: DIAP (ABIDJAN/PORT BOU, CI) observed 0530 UTC 13 August 2018
Temperature: 24.0°C (75°F)
Dewpoint: 23.0°C (73°F) [RH = 94%]
Pressure (altimeter): 29.94 inches Hg (1014.0 mb)
Winds: from the WSW (250 degrees) at 5 MPH (4 knots; 2.1 m/s)
Visibility: 5 miles (8 km)
Ceiling: at least 12,000 feet AGL
Clouds: scattered clouds at 1100 feet AGL
Weather: no significant weather observed at this time

METAR text: DIAP 130500Z 25003KT 8000 SCT011 24/23 Q1014 NOSIG
Conditions at: DIAP (ABIDJAN/PORT BOU, CI) observed 0500 UTC 13 August 2018
Temperature: 24.0°C (75°F)
Dewpoint: 23.0°C (73°F) [RH = 94%]
Pressure (altimeter): 29.94 inches Hg (1014.0 mb)
Winds: from the WSW (250 degrees) at 3 MPH (3 knots; 1.6 m/s)
Visibility: 5 miles (8 km)
Ceiling: at least 12,000 feet AGL
Clouds: scattered clouds at 1100 feet AGL
Weather: no significant weather observed at this time

METAR text: DIAP 130430Z 23004KT 8000 FEW011 24/23 Q1014 NOSIG
Conditions at: DIAP (ABIDJAN/PORT BOU, CI) observed 0430 UTC 13 August 2018
Temperature: 24.0°C (75°F)
Dewpoint: 23.0°C (73°F) [RH = 94%]
Pressure (altimeter): 29.94 inches Hg (1014.0 mb)
Winds: from the SW (230 degrees) at 5 MPH (4 knots; 2.1 m/s)
Visibility: 5 miles (8 km)
Ceiling: at least 12,000 feet AGL
Clouds: few clouds at 1100 feet AGL
Weather: no significant weather observed at this time